createdAt,value
2022-08-14T00:02:31.280Z,100023.73
2022-08-14T00:04:59.008Z,100021.50
2022-08-14T00:07:28.217Z,100025.69
2022-08-14T00:10:49.680Z,100024.30
2022-08-14T00:12:33.762Z,100020.92
2022-08-14T00:14:59.183Z,100024.84
2022-08-14T00:17:29.809Z,100013.94
2022-08-14T00:20:00.825Z,100019.80
2022-08-14T00:22:57.119Z,100022.30
2022-08-14T00:25:01.261Z,100017.84
2022-08-14T00:27:30.615Z,100030.41
2022-08-14T00:30:01.470Z,100020.63
2022-08-14T00:33:01.688Z,100026.22
2022-08-14T00:35:05.716Z,100027.62
2022-08-14T00:37:39.724Z,100019.23
2022-08-14T00:40:19.173Z,100020.07
2022-08-14T00:42:55.785Z,100030.95
2022-08-14T00:45:15.329Z,100029.00
2022-08-14T00:47:46.909Z,100025.66
2022-08-14T00:50:18.908Z,100017.00
2022-08-14T00:52:52.406Z,100021.48
2022-08-14T00:55:21.079Z,100009.20
2022-08-14T00:57:52.011Z,100018.99
2022-08-14T01:00:37.336Z,100019.57
2022-08-14T01:02:53.793Z,100014.83
2022-08-14T01:05:25.941Z,100015.12
2022-08-14T01:08:00.740Z,100002.28
2022-08-14T01:10:50.093Z,100004.80
2022-08-14T01:13:23.350Z,100008.98
2022-08-14T01:15:58.619Z,100010.95
2022-08-14T01:18:57.759Z,100009.00
2022-08-14T01:21:25.533Z,100022.70
2022-08-14T01:23:56.162Z,100013.77
2022-08-14T01:26:35.061Z,100020.20
2022-08-14T01:28:59.434Z,100017.11
2022-08-14T01:31:31.109Z,100014.31
2022-08-14T01:35:20.849Z,100004.27
2022-08-14T01:36:39.037Z,100014.59
2022-08-14T01:39:15.376Z,100021.30
2022-08-14T01:41:53.845Z,100009.84
2022-08-14T01:44:32.699Z,100006.22
2022-08-14T01:47:05.837Z,100009.58
2022-08-14T01:49:45.969Z,100012.37
2022-08-14T01:52:23.277Z,100016.84
2022-08-14T01:54:40.605Z,100014.34
2022-08-14T01:57:11.481Z,100017.69
2022-08-14T01:59:43.801Z,100014.91
2022-08-14T02:02:14.693Z,100018.55
2022-08-14T02:04:56.776Z,100015.21
2022-08-14T02:07:15.984Z,100015.50
2022-08-14T02:09:44.761Z,100022.48
2022-08-14T02:12:26.245Z,100015.22
2022-08-14T02:14:50.838Z,100023.89
2022-08-14T02:17:20.769Z,100023.61
2022-08-14T02:19:51.504Z,100019.42
2022-08-14T02:22:29.206Z,100015.25
2022-08-14T02:24:52.065Z,100011.63
2022-08-14T02:28:25.728Z,100007.47
2022-08-14T02:30:00.092Z,100019.20
2022-08-14T02:32:30.475Z,100016.98
2022-08-14T02:34:55.364Z,100018.67
2022-08-14T02:37:24.418Z,100022.03
2022-08-14T02:39:55.352Z,100026.52
2022-08-14T02:42:37.014Z,100027.64
2022-08-14T02:44:55.927Z,100015.92
2022-08-14T02:47:26.729Z,100025.98
2022-08-14T02:49:56.994Z,100022.36
2022-08-14T02:52:57.082Z,100018.73
2022-08-14T02:54:58.099Z,100018.73
2022-08-14T02:57:40.580Z,100012.61
2022-08-14T02:59:58.760Z,100023.21
2022-08-14T03:02:48.777Z,100029.07
2022-08-14T03:05:00.320Z,100026.56
2022-08-14T03:07:30.026Z,100024.62
2022-08-14T03:10:25.662Z,100027.11
2022-08-14T03:12:33.156Z,100020.14
2022-08-14T03:15:14.298Z,100027.39
2022-08-14T03:17:57.488Z,100017.89
2022-08-14T03:20:13.166Z,100021.80
2022-08-14T03:22:42.378Z,100017.33
2022-08-14T03:25:12.323Z,100015.66
2022-08-14T03:27:48.585Z,100018.17
2022-08-14T03:30:14.743Z,100025.42
2022-08-14T03:32:44.879Z,100025.71
2022-08-14T03:35:15.341Z,100023.20
2022-08-14T03:39:11.617Z,100027.11
2022-08-14T03:40:18.418Z,100021.81
2022-08-14T03:42:47.621Z,100021.25
2022-08-14T03:45:28.012Z,100023.75
2022-08-14T03:47:58.467Z,100020.13
2022-08-14T03:50:27.942Z,100022.36
2022-08-14T03:52:56.098Z,100024.87
2022-08-14T03:55:20.060Z,100023.20
2022-08-14T03:57:48.994Z,100022.92
2022-08-14T04:00:40.258Z,100032.12
2022-08-14T04:02:53.328Z,100028.77
2022-08-14T04:05:23.269Z,100027.66
2022-08-14T04:08:08.459Z,100022.08
2022-08-14T04:10:31.569Z,100019.00
2022-08-14T04:12:56.471Z,100013.98
2022-08-14T04:15:27.123Z,100010.64
2022-08-14T04:17:56.810Z,100015.94
2022-08-14T04:20:26.075Z,100014.82
2022-08-14T04:22:55.629Z,100005.61
2022-08-14T04:25:25.195Z,100007.00
2022-08-14T04:28:03.353Z,100004.80
2022-08-14T04:30:32.877Z,100002.84
2022-08-14T04:33:04.696Z,100014.84
2022-08-14T04:35:55.978Z,100008.40
2022-08-14T04:38:37.144Z,100013.42
2022-08-14T04:41:08.038Z,100007.84
2022-08-14T04:43:40.515Z,100001.70
2022-08-14T04:46:57.064Z,100002.28
2022-08-14T04:48:51.373Z,100009.25
2022-08-14T04:51:23.688Z,100005.07
2022-08-14T04:53:57.330Z,100010.37
2022-08-14T04:56:31.476Z,100001.15
2022-08-14T04:59:01.609Z,100007.59
2022-08-14T05:01:39.576Z,100006.47
2022-08-14T05:04:02.237Z,100012.59
2022-08-14T05:06:38.639Z,100008.67
2022-08-14T05:09:02.766Z,100007.56
2022-08-14T05:11:36.523Z,100016.20
2022-08-14T05:14:16.670Z,100019.55
2022-08-14T05:16:37.133Z,100013.40
2022-08-14T05:19:24.927Z,100008.37
2022-08-14T05:21:59.904Z,100010.86
2022-08-14T05:24:17.671Z,100006.12
2022-08-14T05:26:44.898Z,100002.47
2022-08-14T05:29:17.063Z,100003.85
2022-08-14T05:31:46.041Z,100008.30
2022-08-14T05:34:14.815Z,100002.42
2022-08-14T05:36:50.574Z,100001.27
2022-08-14T05:39:15.907Z,100001.81
2022-08-14T05:41:53.583Z,100001.80
2022-08-14T05:44:15.996Z,100004.58
2022-08-14T05:46:46.285Z,100009.58
2022-08-14T05:49:15.745Z,100006.22
2022-08-14T05:51:47.060Z,100007.08
2022-08-14T05:54:26.753Z,100008.46
2022-08-14T05:56:47.449Z,100000.89
2022-08-14T05:59:17.895Z,99999.21
2022-08-14T06:01:51.044Z,99997.53
2022-08-14T06:04:19.517Z,100003.11
2022-08-14T06:06:48.697Z,100002.27
2022-08-14T06:09:18.009Z,100000.84
2022-08-14T06:11:49.758Z,99997.75
2022-08-14T06:14:20.894Z,100001.34
2022-08-14T06:16:53.013Z,99995.72
2022-08-14T06:19:23.114Z,99988.97
2022-08-14T06:21:58.211Z,99989.47
2022-08-14T06:24:23.974Z,99993.06
2022-08-14T06:27:03.848Z,99990.22
2022-08-14T06:29:25.710Z,99995.25
2022-08-14T06:32:00.411Z,99984.06
2022-08-14T06:35:11.363Z,99992.44
2022-08-14T06:36:59.353Z,99993.54
2022-08-14T06:39:36.437Z,99991.28
2022-08-14T06:41:59.887Z,99991.56
2022-08-14T06:44:32.241Z,99989.29
2022-08-14T06:46:59.703Z,99997.39
2022-08-14T06:49:30.201Z,99998.17
2022-08-14T06:52:00.812Z,99999.27
2022-08-14T06:54:32.015Z,100004.47
2022-08-14T06:57:01.194Z,99999.91
2022-08-14T06:59:30.052Z,99993.39
2022-08-14T07:02:17.827Z,99996.94
2022-08-14T07:05:06.202Z,99995.73
2022-08-14T07:07:40.350Z,100006.01
2022-08-14T07:10:16.839Z,100011.28
2022-08-14T07:13:02.056Z,99997.48
2022-08-14T07:15:13.056Z,100001.96
2022-08-14T07:17:52.287Z,100005.06
2022-08-14T07:20:31.397Z,100007.83
2022-08-14T07:22:56.947Z,100003.89
2022-08-14T07:25:32.529Z,99997.06
2022-08-14T07:27:57.461Z,100000.97
2022-08-14T07:30:34.011Z,99995.20
2022-08-14T07:32:59.322Z,99991.64
2022-08-14T07:35:37.248Z,99987.11
2022-08-14T07:38:00.345Z,99985.34
2022-08-14T07:40:29.902Z,99984.81
2022-08-14T07:42:59.919Z,99983.53
2022-08-14T07:45:31.931Z,99991.67
2022-08-14T07:48:01.374Z,99986.13
2022-08-14T07:50:34.705Z,99996.27
2022-08-14T07:53:03.310Z,99996.43
2022-08-14T07:55:34.260Z,99989.40
2022-08-14T07:58:05.875Z,99988.33
2022-08-14T08:00:35.586Z,99996.27
2022-08-14T08:03:11.874Z,99985.31
2022-08-14T08:05:43.728Z,99990.38
2022-08-14T08:08:26.572Z,99990.11
2022-08-14T08:11:01.853Z,99982.30
2022-08-14T08:13:18.951Z,99985.13
2022-08-14T08:15:56.729Z,99975.55
2022-08-14T08:18:27.794Z,99973.72
2022-08-14T08:20:59.531Z,99973.36
2022-08-14T08:23:34.495Z,99973.46
2022-08-14T08:26:00.726Z,99970.52
2022-08-14T08:28:31.192Z,99976.37
2022-08-14T08:31:05.501Z,99975.45
2022-08-14T08:33:39.214Z,99974.74
2022-08-14T08:36:12.603Z,99977.14
2022-08-14T08:39:17.705Z,99969.30
2022-08-14T08:41:12.606Z,99985.84
2022-08-14T08:43:46.751Z,99977.18
2022-08-14T08:46:21.137Z,99972.63
2022-08-14T08:48:53.987Z,99969.95
2022-08-14T08:51:31.109Z,99971.77
2022-08-14T08:54:19.768Z,99958.68
2022-08-14T08:56:45.778Z,99964.98
2022-08-14T08:59:34.359Z,99966.44
2022-08-14T09:02:09.251Z,99958.30
2022-08-14T09:04:45.425Z,99953.47
2022-08-14T09:07:13.988Z,99953.37
2022-08-14T09:09:53.968Z,99954.50
2022-08-14T09:12:22.498Z,99956.17
2022-08-14T09:14:53.374Z,99952.17
2022-08-14T09:17:25.856Z,99943.59
2022-08-14T09:19:53.463Z,99943.63
2022-08-14T09:22:34.719Z,99946.83
2022-08-14T09:24:55.242Z,99939.88
2022-08-14T09:27:23.952Z,99927.55
2022-08-14T09:29:54.091Z,99937.34
2022-08-14T09:32:59.539Z,99930.28
2022-08-14T09:35:21.387Z,99941.08
2022-08-14T09:38:27.974Z,99932.37
2022-08-14T09:41:18.293Z,99931.20
2022-08-14T09:44:01.362Z,99937.76
2022-08-14T09:46:34.286Z,99936.19
2022-08-14T09:49:07.352Z,99937.02
2022-08-14T09:51:44.653Z,99930.88
2022-08-14T09:54:18.470Z,99938.67
2022-08-14T09:56:51.528Z,99935.48
2022-08-14T09:59:20.994Z,99930.08
2022-08-14T10:01:53.070Z,99942.44
2022-08-14T10:04:35.824Z,99937.41
2022-08-14T10:06:54.982Z,99934.73
2022-08-14T10:09:27.206Z,99951.88
2022-08-14T10:11:59.704Z,99940.11
2022-08-14T10:14:35.873Z,99953.63
2022-08-14T10:17:04.855Z,99952.94
2022-08-14T10:19:36.478Z,99952.12
2022-08-14T10:23:14.716Z,99950.94
2022-08-14T10:24:46.243Z,99950.33
2022-08-14T10:27:22.472Z,99945.34
2022-08-14T10:29:59.213Z,99940.80
2022-08-14T10:32:39.935Z,99941.73
2022-08-14T10:35:13.766Z,99939.59
2022-08-14T10:37:44.374Z,99938.69
2022-08-14T10:40:38.653Z,99949.63
2022-08-14T10:43:02.520Z,99942.27
2022-08-14T10:45:35.749Z,99948.94
2022-08-14T10:48:25.051Z,99949.88
2022-08-14T10:50:44.752Z,99945.49
2022-08-14T10:53:15.321Z,99938.20
2022-08-14T10:55:45.979Z,99938.20
2022-08-14T10:58:17.358Z,99937.54
2022-08-14T11:00:57.084Z,99936.05
2022-08-14T11:03:55.350Z,99933.73
2022-08-14T11:06:01.115Z,99938.88
2022-08-14T11:08:33.491Z,99938.88
2022-08-14T11:11:05.572Z,99932.56
2022-08-14T11:13:37.051Z,99925.92
2022-08-14T11:16:07.370Z,99928.98
2022-08-14T11:18:39.936Z,99926.02
2022-08-14T11:21:09.477Z,99917.16
2022-08-14T11:23:40.929Z,99921.56
2022-08-14T11:26:11.902Z,99932.50
2022-08-14T11:28:48.520Z,99927.69
2022-08-14T11:31:25.050Z,99928.84
2022-08-14T11:33:56.459Z,99928.84
2022-08-14T11:36:57.308Z,99935.70
2022-08-14T11:38:58.796Z,99922.59
2022-08-14T11:41:28.060Z,99922.27
2022-08-14T11:43:58.682Z,99928.33
2022-08-14T11:46:29.504Z,99919.39
2022-08-14T11:49:03.466Z,99928.45
2022-08-14T11:51:31.000Z,99928.45
2022-08-14T11:54:03.251Z,99935.84
2022-08-14T11:56:36.505Z,99928.88
2022-08-14T11:59:10.091Z,99931.77
2022-08-14T12:01:41.444Z,99940.30
2022-08-14T12:04:32.710Z,99922.38
2022-08-14T12:06:55.653Z,99939.20
2022-08-14T12:09:35.681Z,99937.72
2022-08-14T12:12:36.064Z,99936.81
2022-08-14T12:14:59.940Z,99940.78
2022-08-14T12:17:31.806Z,99934.41
2022-08-14T12:20:07.383Z,99936.92
2022-08-14T12:22:42.424Z,99933.97
2022-08-14T12:25:20.611Z,99928.42
2022-08-14T12:27:53.876Z,99935.47
2022-08-14T12:30:43.448Z,99939.70
2022-08-14T12:33:33.666Z,99936.13
2022-08-14T12:36:06.605Z,99933.14
2022-08-14T12:38:45.474Z,99933.14
2022-08-14T12:41:22.039Z,99931.58
2022-08-14T12:43:57.174Z,99938.96
2022-08-14T12:46:35.887Z,99925.98
2022-08-14T12:49:15.982Z,99925.98
2022-08-14T12:51:47.720Z,99918.34
2022-08-14T12:54:27.763Z,99916.85
2022-08-14T12:56:49.204Z,99915.69
2022-08-14T12:59:19.782Z,99922.91
2022-08-14T13:02:00.087Z,99933.57
2022-08-14T13:04:21.325Z,99924.52
2022-08-14T13:06:51.677Z,99921.99
2022-08-14T13:09:20.443Z,99912.28
2022-08-14T13:11:58.362Z,99905.06
2022-08-14T13:14:29.909Z,99910.78
2022-08-14T13:16:58.732Z,99909.20
2022-08-14T13:19:28.423Z,99906.54
2022-08-14T13:21:58.475Z,99903.88
2022-08-14T13:24:28.127Z,99891.76
2022-08-14T13:27:00.222Z,99897.91
2022-08-14T13:29:29.646Z,99890.52
2022-08-14T13:32:00.867Z,99907.39
2022-08-14T13:34:31.584Z,99907.39
2022-08-14T13:37:03.750Z,99896.56
2022-08-14T13:39:35.941Z,99898.95
2022-08-14T13:42:08.106Z,99904.66
2022-08-14T13:44:37.514Z,99899.42
2022-08-14T13:47:08.792Z,99897.08
2022-08-14T13:49:38.144Z,99896.64
2022-08-14T13:52:14.656Z,99897.94
2022-08-14T13:54:42.662Z,99883.78
2022-08-14T13:57:15.182Z,99888.36
2022-08-14T13:59:49.472Z,99882.45
2022-08-14T14:02:31.597Z,99873.70
2022-08-14T14:04:52.640Z,99860.86
2022-08-14T14:07:23.567Z,99857.93
2022-08-14T14:09:53.398Z,99867.20
2022-08-14T14:12:38.321Z,99869.02
2022-08-14T14:14:55.299Z,99881.30
2022-08-14T14:17:25.412Z,99880.77
2022-08-14T14:19:56.376Z,99880.80
2022-08-14T14:22:35.846Z,99889.53
2022-08-14T14:24:58.715Z,99885.80
2022-08-14T14:27:40.430Z,99879.45
2022-08-14T14:30:01.356Z,99881.75
2022-08-14T14:32:32.580Z,99880.92
2022-08-14T14:35:02.565Z,99879.52
2022-08-14T14:37:33.653Z,99887.70
2022-08-14T14:40:52.730Z,99884.38
2022-08-14T14:42:35.592Z,99885.25
2022-08-14T14:45:18.167Z,99889.73
2022-08-14T14:47:59.005Z,99888.58
2022-08-14T14:50:24.892Z,99897.84
2022-08-14T14:52:53.896Z,99879.37
2022-08-14T14:55:25.473Z,99875.22
2022-08-14T14:57:55.923Z,99874.66
2022-08-14T15:00:24.666Z,99861.45
2022-08-14T15:02:57.868Z,99869.61
2022-08-14T15:05:28.382Z,99860.67
2022-08-14T15:07:58.364Z,99860.93
2022-08-14T15:10:34.241Z,99860.09
2022-08-14T15:13:03.988Z,99854.73
2022-08-14T15:15:37.435Z,99852.77
2022-08-14T15:18:36.414Z,99856.66
2022-08-14T15:20:38.372Z,99863.63
2022-08-14T15:23:11.914Z,99858.53
2022-08-14T15:25:38.579Z,99872.00
2022-08-14T15:28:10.801Z,99863.58
2022-08-14T15:30:42.220Z,99872.26
2022-08-14T15:33:11.801Z,99866.64
2022-08-14T15:35:44.960Z,99865.23
2022-08-14T15:38:17.707Z,99874.80
2022-08-14T15:40:43.827Z,99874.23
2022-08-14T15:43:14.570Z,99872.26
2022-08-14T15:45:45.531Z,99874.75
2022-08-14T15:48:21.982Z,99873.09
2022-08-14T15:50:49.248Z,99871.48
2022-08-14T15:53:18.285Z,99878.81
2022-08-14T15:55:52.932Z,99874.91
2022-08-14T15:58:24.241Z,99882.50
2022-08-14T16:01:22.595Z,99878.03
2022-08-14T16:03:46.854Z,99892.90
2022-08-14T16:06:18.611Z,99882.86
2022-08-14T16:08:58.768Z,99886.55
2022-08-14T16:11:21.884Z,99885.16
2022-08-14T16:13:50.993Z,99880.94
2022-08-14T16:16:49.223Z,99883.48
2022-08-14T16:18:59.484Z,99885.52
2022-08-14T16:21:29.506Z,99893.67
2022-08-14T16:24:00.762Z,99894.04
2022-08-14T16:26:33.082Z,99886.81
2022-08-14T16:29:05.276Z,99894.97
2022-08-14T16:31:39.171Z,99892.47
2022-08-14T16:34:45.684Z,99892.83
2022-08-14T16:36:51.009Z,99887.29
2022-08-14T16:39:13.179Z,99887.08
2022-08-14T16:41:45.697Z,99897.20
2022-08-14T16:44:31.482Z,99901.16
2022-08-14T16:46:46.511Z,99903.17
2022-08-14T16:49:17.646Z,99903.22
2022-08-14T16:51:52.785Z,99895.06
2022-08-14T16:54:33.702Z,99900.16
2022-08-14T16:56:50.368Z,99894.59
2022-08-14T16:59:23.576Z,99894.91
2022-08-14T17:02:05.032Z,99903.94
2022-08-14T17:04:41.220Z,99902.58
2022-08-14T17:07:13.842Z,99907.66
2022-08-14T17:09:50.321Z,99900.97
2022-08-14T17:12:35.041Z,99901.63
2022-08-14T17:15:14.898Z,99900.59
2022-08-14T17:17:58.005Z,99906.23
2022-08-14T17:20:54.172Z,99911.36
2022-08-14T17:22:57.352Z,99905.84
2022-08-14T17:25:30.126Z,99906.45
2022-08-14T17:28:52.161Z,99896.11
2022-08-14T17:30:58.129Z,99905.70
2022-08-14T17:33:31.491Z,99901.59
2022-08-14T17:36:21.282Z,99900.77
2022-08-14T17:39:06.728Z,99910.05
2022-08-14T17:41:48.031Z,99907.63
2022-08-14T17:44:34.472Z,99904.03
2022-08-14T17:47:05.880Z,99914.15
2022-08-14T17:49:40.425Z,99917.83
2022-08-14T17:52:34.445Z,99925.97
2022-08-14T17:54:58.987Z,99918.17
2022-08-14T17:57:26.098Z,99920.17
2022-08-14T17:59:59.166Z,99925.22
2022-08-14T18:02:31.527Z,99923.55
2022-08-14T18:05:02.712Z,99915.75
2022-08-14T18:07:59.508Z,99923.36
2022-08-14T18:10:52.520Z,99924.50
2022-08-14T18:12:36.925Z,99920.90
2022-08-14T18:15:17.487Z,99920.94
2022-08-14T18:17:52.588Z,99924.04
2022-08-14T18:21:23.809Z,99919.57
2022-08-14T18:22:49.666Z,99915.67
2022-08-14T18:25:22.773Z,99915.97
2022-08-14T18:27:51.831Z,99915.17
2022-08-14T18:30:32.073Z,99909.05
2022-08-14T18:32:57.506Z,99904.84
2022-08-14T18:35:58.510Z,99910.18
2022-08-14T18:38:45.902Z,99909.87
2022-08-14T18:40:58.888Z,99910.18
2022-08-14T18:43:43.712Z,99909.34
2022-08-14T18:46:59.460Z,99907.98
2022-08-14T18:48:51.496Z,99910.78
2022-08-14T18:51:19.142Z,99903.25
2022-08-14T18:53:57.910Z,99908.28
2022-08-14T18:56:58.711Z,99901.88
2022-08-14T18:59:43.258Z,99903.59
2022-08-14T19:02:34.426Z,99899.69
2022-08-14T19:05:05.866Z,99914.55
2022-08-14T19:07:37.707Z,99901.69
2022-08-14T19:10:16.598Z,99914.02
2022-08-14T19:13:11.971Z,99906.49
2022-08-14T19:15:42.864Z,99909.29
2022-08-14T19:18:27.735Z,99919.92
2022-08-14T19:21:13.214Z,99906.49
2022-08-14T19:23:42.380Z,99911.56
2022-08-14T19:26:36.104Z,99903.20
2022-08-14T19:28:56.350Z,99896.46
2022-08-14T19:31:42.502Z,99910.73
2022-08-14T19:34:07.364Z,99901.76
2022-08-14T19:37:05.527Z,99897.90
2022-08-14T19:39:46.847Z,99901.03
2022-08-14T19:42:28.328Z,99910.33
2022-08-14T19:44:49.434Z,99891.90
2022-08-14T19:47:18.720Z,99901.42
2022-08-14T19:50:08.098Z,99902.83
2022-08-14T19:52:23.036Z,99902.52
2022-08-14T19:54:52.289Z,99902.26
2022-08-14T19:57:24.478Z,99903.39
2022-08-14T20:00:28.083Z,99903.72
2022-08-14T20:02:50.379Z,99898.72
2022-08-14T20:05:21.724Z,99913.02
2022-08-14T20:08:05.880Z,99898.48
2022-08-14T20:11:05.757Z,99912.78
2022-08-14T20:13:12.116Z,99913.64
2022-08-14T20:15:46.972Z,99910.88
2022-08-14T20:18:27.004Z,99906.70
2022-08-14T20:20:43.900Z,99922.66
2022-08-14T20:23:16.289Z,99914.27
2022-08-14T20:25:56.572Z,99916.23
2022-08-14T20:28:30.753Z,99912.30
2022-08-14T20:31:20.173Z,99921.29
2022-08-14T20:34:18.933Z,99921.61
2022-08-14T20:36:42.030Z,99916.08
2022-08-14T20:39:15.448Z,99923.66
2022-08-14T20:41:51.095Z,99926.73
2022-08-14T20:44:41.814Z,99911.94
2022-08-14T20:47:18.601Z,99928.77
2022-08-14T20:49:49.344Z,99916.21
2022-08-14T20:52:19.189Z,99918.20
2022-08-14T20:54:50.536Z,99916.23
2022-08-14T20:57:20.388Z,99927.72
2022-08-14T20:59:57.204Z,99920.73
2022-08-14T21:02:50.421Z,99922.39
2022-08-14T21:05:16.004Z,99927.45
2022-08-14T21:07:42.353Z,99911.53
2022-08-14T21:10:36.317Z,99917.41
2022-08-14T21:13:26.390Z,99914.05
2022-08-14T21:15:28.175Z,99909.59
2022-08-14T21:17:58.977Z,99910.72
2022-08-14T21:20:29.253Z,99923.03
2022-08-14T21:23:01.182Z,99918.30
2022-08-14T21:25:31.513Z,99914.12
2022-08-14T21:28:06.498Z,99916.92
2022-08-14T21:30:51.849Z,99907.41
2022-08-14T21:33:09.011Z,99912.72
2022-08-14T21:35:44.803Z,99902.40
2022-08-14T21:38:18.105Z,99916.70
2022-08-14T21:40:50.163Z,99908.36
2022-08-14T21:43:23.132Z,99911.74
2022-08-14T21:45:58.180Z,99905.61
2022-08-14T21:48:31.477Z,99912.05
2022-08-14T21:51:54.665Z,99911.22
2022-08-14T21:53:34.004Z,99915.41
2022-08-14T21:56:03.879Z,99911.49
2022-08-14T21:58:54.006Z,99905.91
2022-08-14T22:01:03.927Z,99917.11
2022-08-14T22:03:35.190Z,99911.25
2022-08-14T22:06:05.649Z,99917.16
2022-08-14T22:08:36.957Z,99913.81
2022-08-14T22:11:07.512Z,99913.84
2022-08-14T22:13:46.441Z,99912.14
2022-08-14T22:17:02.316Z,99914.67
2022-08-14T22:18:41.719Z,99914.12
2022-08-14T22:21:17.127Z,99913.02
2022-08-14T22:23:43.628Z,99914.71
2022-08-14T22:26:12.974Z,99913.31
2022-08-14T22:28:44.808Z,99913.61
2022-08-14T22:31:22.168Z,99908.02
2022-08-14T22:33:49.866Z,99909.69
2022-08-14T22:36:42.069Z,99900.76
2022-08-14T22:39:11.155Z,99903.28
2022-08-14T22:41:43.028Z,99903.02
2022-08-14T22:44:14.855Z,99900.80
2022-08-14T22:46:45.363Z,99905.02
2022-08-14T22:50:31.597Z,99902.52
2022-08-14T22:51:48.486Z,99896.11
2022-08-14T22:54:52.258Z,99892.21
2022-08-14T22:56:48.660Z,99900.32
2022-08-14T22:59:18.110Z,99897.80
2022-08-14T23:02:03.809Z,99899.20
2022-08-14T23:04:35.777Z,99897.53
2022-08-14T23:07:07.285Z,99884.44
2022-08-14T23:09:38.230Z,99888.61
2022-08-14T23:12:27.402Z,99895.34
2022-08-14T23:14:39.294Z,99887.52
2022-08-14T23:17:12.157Z,99891.97
2022-08-14T23:19:42.807Z,99890.30
2022-08-14T23:22:12.292Z,99888.61
2022-08-14T23:24:43.173Z,99888.06
2022-08-14T23:27:20.878Z,99889.47
2022-08-14T23:29:43.917Z,99889.73
2022-08-14T23:32:15.752Z,99879.96
2022-08-14T23:34:47.841Z,99887.22
2022-08-14T23:37:17.250Z,99885.27
2022-08-14T23:39:46.650Z,99876.06
2022-08-14T23:42:18.021Z,99873.55
2022-08-14T23:44:46.842Z,99875.78
2022-08-14T23:47:26.064Z,99883.02
2022-08-14T23:50:00.587Z,99875.47
2022-08-14T23:52:50.578Z,99879.37
2022-08-14T23:54:50.148Z,99872.39
2022-08-14T23:57:19.550Z,99875.98
2022-08-14T23:59:54.408Z,99859.50
